createdAt,value
2022-11-28T00:00:31.634Z,101251.28
2022-11-28T00:02:58.570Z,101252.78
2022-11-28T00:05:25.417Z,101257.84
2022-11-28T00:07:52.426Z,101256.97
2022-11-28T00:10:20.980Z,101260.50
2022-11-28T00:12:48.260Z,101256.97
2022-11-28T00:15:15.324Z,101256.97
2022-11-28T00:17:42.168Z,101259.41
2022-11-28T00:20:09.015Z,101264.47
2022-11-28T00:22:35.842Z,101261.06
2022-11-28T00:25:02.728Z,101252.56
2022-11-28T00:27:30.342Z,101251.66
2022-11-28T00:29:57.163Z,101245.97
2022-11-28T00:32:23.988Z,101253.56
2022-11-28T00:34:50.712Z,101246.72
2022-11-28T00:37:17.480Z,101255.88
2022-11-28T00:39:44.325Z,101248.78
2022-11-28T00:42:11.090Z,101257.16
2022-11-28T00:44:37.883Z,101254.75
2022-11-28T00:47:04.684Z,101247.25
2022-11-28T00:49:31.508Z,101245.47
2022-11-28T00:51:58.264Z,101245.47
2022-11-28T00:54:25.002Z,101242.06
2022-11-28T00:56:51.724Z,101253.88
2022-11-28T00:59:18.478Z,101251.56
2022-11-28T01:01:46.697Z,101248.38
2022-11-28T01:04:15.260Z,101246.84
2022-11-28T01:06:45.076Z,101246.19
2022-11-28T01:09:14.669Z,101241.88
2022-11-28T01:11:43.656Z,101248.00
2022-11-28T01:14:11.915Z,101251.75
2022-11-28T01:16:39.360Z,101252.91
2022-11-28T01:19:06.597Z,101254.47
2022-11-28T01:21:34.222Z,101262.06
2022-11-28T01:24:00.952Z,101263.72
2022-11-28T01:26:29.947Z,101262.41
2022-11-28T01:28:57.304Z,101263.31
2022-11-28T01:31:27.170Z,101261.53
2022-11-28T01:33:54.573Z,101265.91
2022-11-28T01:36:22.001Z,101262.09
2022-11-28T01:38:49.767Z,101261.84
2022-11-28T01:41:20.359Z,101261.78
2022-11-28T01:44:15.891Z,101248.44
2022-11-28T01:46:43.494Z,101249.00
2022-11-28T01:49:20.525Z,101254.09
2022-11-28T01:51:58.375Z,101258.91
2022-11-28T01:54:26.526Z,101261.22
2022-11-28T01:57:00.711Z,101257.91
2022-11-28T01:59:33.694Z,101253.38
2022-11-28T02:02:00.556Z,101253.78
2022-11-28T02:04:28.368Z,101260.47
2022-11-28T02:06:55.737Z,101258.59
2022-11-28T02:09:22.439Z,101261.00
2022-11-28T02:12:04.322Z,101252.00
2022-11-28T02:14:30.938Z,101264.13
2022-11-28T02:17:19.670Z,101271.63
2022-11-28T02:20:04.536Z,101263.25
2022-11-28T02:22:46.463Z,101274.66
2022-11-28T02:25:54.251Z,101281.53
2022-11-28T02:28:39.567Z,101280.28
2022-11-28T02:31:08.922Z,101286.00
2022-11-28T02:33:59.876Z,101287.13
2022-11-28T02:36:45.285Z,101290.19
2022-11-28T02:39:51.519Z,101284.88
2022-11-28T02:42:24.200Z,101290.09
2022-11-28T02:44:57.603Z,101291.22
2022-11-28T02:47:35.771Z,101285.50
2022-11-28T02:50:07.506Z,101292.47
2022-11-28T02:52:39.311Z,101299.19
2022-11-28T02:55:06.818Z,101300.69
2022-11-28T02:57:38.822Z,101301.81
2022-11-28T03:00:31.750Z,101303.88
2022-11-28T03:03:35.559Z,101297.00
2022-11-28T03:06:24.344Z,101294.13
2022-11-28T03:09:23.477Z,101300.69
2022-11-28T03:12:19.328Z,101306.16
2022-11-28T03:14:45.969Z,101316.53
2022-11-28T03:17:31.191Z,101309.47
2022-11-28T03:20:16.532Z,101314.75
2022-11-28T03:22:52.008Z,101319.09
2022-11-28T03:25:39.399Z,101316.81
2022-11-28T03:28:11.991Z,101317.06
2022-11-28T03:30:52.912Z,101316.81
2022-11-28T03:33:22.363Z,101316.81
2022-11-28T03:35:54.452Z,101325.41
2022-11-28T03:38:30.676Z,101317.94
2022-11-28T03:41:03.204Z,101321.13
2022-11-28T03:43:36.324Z,101321.88
2022-11-28T03:46:08.249Z,101322.88
2022-11-28T03:48:41.068Z,101328.59
2022-11-28T03:51:15.688Z,101325.94
2022-11-28T03:54:01.864Z,101338.84
2022-11-28T03:56:40.498Z,101337.31
2022-11-28T03:59:07.148Z,101333.28
2022-11-28T04:01:59.815Z,101339.84
2022-11-28T04:04:37.421Z,101330.47
2022-11-28T04:07:30.183Z,101333.25
2022-11-28T04:10:08.183Z,101337.81
2022-11-28T04:13:16.139Z,101341.38
2022-11-28T04:15:59.291Z,101338.72
2022-11-28T04:18:41.133Z,101331.47
2022-11-28T04:21:20.086Z,101336.06
2022-11-28T04:23:49.983Z,101342.63
2022-11-28T04:26:21.227Z,101339.84
2022-11-28T04:28:49.863Z,101349.72
2022-11-28T04:31:19.674Z,101351.75
2022-11-28T04:33:50.783Z,101346.94
2022-11-28T04:36:20.319Z,101346.94
2022-11-28T04:38:56.076Z,101346.69
2022-11-28T04:41:25.311Z,101353.53
2022-11-28T04:44:25.068Z,101341.88
2022-11-28T04:46:55.570Z,101352.25
2022-11-28T04:49:23.864Z,101349.59
2022-11-28T04:52:11.855Z,101351.88
2022-11-28T04:54:45.197Z,101354.00
2022-11-28T04:57:18.116Z,101354.13
2022-11-28T04:59:47.381Z,101357.56
2022-11-28T05:02:16.443Z,101361.00
2022-11-28T05:04:44.575Z,101364.41
2022-11-28T05:07:12.038Z,101366.19
2022-11-28T05:09:39.035Z,101366.81
2022-11-28T05:12:06.711Z,101373.28
2022-11-28T05:14:33.628Z,101372.78
2022-11-28T05:17:00.500Z,101374.31
2022-11-28T05:19:27.336Z,101380.38
2022-11-28T05:21:54.062Z,101373.78
2022-11-28T05:24:22.461Z,101380.75
2022-11-28T05:26:49.897Z,101387.72
2022-11-28T05:29:17.094Z,101389.72
2022-11-28T05:31:44.199Z,101391.53
2022-11-28T05:34:11.063Z,101388.22
2022-11-28T05:36:37.841Z,101397.19
2022-11-28T05:39:04.692Z,101394.66
2022-11-28T05:41:32.854Z,101400.88
2022-11-28T05:44:00.283Z,101407.69
2022-11-28T05:46:28.107Z,101416.69
2022-11-28T05:48:54.976Z,101420.13
2022-11-28T05:51:21.759Z,101419.88
2022-11-28T05:53:48.568Z,101426.34
2022-11-28T05:56:19.309Z,101424.19
2022-11-28T05:58:46.744Z,101420.88
2022-11-28T06:01:15.101Z,101435.06
2022-11-28T06:03:42.563Z,101426.22
2022-11-28T06:06:18.306Z,101435.69
2022-11-28T06:08:46.577Z,101436.22
2022-11-28T06:11:15.020Z,101432.66
2022-11-28T06:13:42.970Z,101423.16
2022-11-28T06:16:15.783Z,101431.91
2022-11-28T06:18:42.641Z,101426.16
2022-11-28T06:21:10.952Z,101420.59
2022-11-28T06:23:38.402Z,101422.63
2022-11-28T06:26:08.426Z,101432.28
2022-11-28T06:28:36.002Z,101426.97
2022-11-28T06:31:03.585Z,101440.38
2022-11-28T06:33:30.645Z,101441.16
2022-11-28T06:36:02.215Z,101445.44
2022-11-28T06:38:29.321Z,101446.75
2022-11-28T06:41:01.061Z,101445.34
2022-11-28T06:43:28.085Z,101439.13
2022-11-28T06:45:54.886Z,101438.25
2022-11-28T06:48:23.852Z,101447.47
2022-11-28T06:50:51.049Z,101440.88
2022-11-28T06:53:18.367Z,101442.94
2022-11-28T06:55:45.434Z,101443.94
2022-11-28T06:58:12.218Z,101440.53
2022-11-28T07:00:39.593Z,101444.31
2022-11-28T07:03:06.386Z,101440.63
2022-11-28T07:05:33.128Z,101432.75
2022-11-28T07:08:00.255Z,101445.31
2022-11-28T07:10:28.971Z,101449.38
2022-11-28T07:13:01.252Z,101453.56
2022-11-28T07:15:30.672Z,101457.34
2022-11-28T07:17:57.396Z,101450.03
2022-11-28T07:20:24.158Z,101452.91
2022-11-28T07:22:50.931Z,101449.09
2022-11-28T07:25:17.919Z,101445.78
2022-11-28T07:27:44.700Z,101451.50
2022-11-28T07:30:11.627Z,101443.63
2022-11-28T07:32:41.506Z,101439.03
2022-11-28T07:35:09.058Z,101447.28
2022-11-28T07:37:36.340Z,101452.50
2022-11-28T07:40:04.544Z,101451.44
2022-11-28T07:42:31.384Z,101454.50
2022-11-28T07:44:58.244Z,101457.66
2022-11-28T07:47:25.008Z,101452.50
2022-11-28T07:49:51.793Z,101455.13
2022-11-28T07:52:18.660Z,101451.19
2022-11-28T07:54:45.444Z,101458.91
2022-11-28T07:57:13.379Z,101463.75
2022-11-28T07:59:40.849Z,101466.72
2022-11-28T08:02:10.356Z,101472.66
2022-11-28T08:04:38.627Z,101461.03
2022-11-28T08:07:07.251Z,101469.03
2022-11-28T08:09:34.004Z,101473.69
2022-11-28T08:12:00.743Z,101463.31
2022-11-28T08:14:27.491Z,101469.16
2022-11-28T08:16:54.257Z,101477.63
2022-11-28T08:19:24.533Z,101474.22
2022-11-28T08:21:51.602Z,101477.00
2022-11-28T08:24:18.369Z,101472.81
2022-11-28T08:26:45.105Z,101480.56
2022-11-28T08:29:11.868Z,101485.75
2022-11-28T08:31:39.841Z,101483.69
2022-11-28T08:34:09.554Z,101482.81
2022-11-28T08:36:37.022Z,101485.22
2022-11-28T08:41:52.563Z,101498.41
2022-11-28T08:44:19.412Z,101506.75
2022-11-28T08:46:46.132Z,101509.19
2022-11-28T08:49:13.109Z,101511.59
2022-11-28T08:51:40.077Z,101506.75
2022-11-28T08:54:06.952Z,101507.53
2022-11-28T08:56:34.885Z,101505.50
2022-11-28T08:59:01.772Z,101504.88
2022-11-28T09:01:28.662Z,101502.34
2022-11-28T09:03:56.852Z,101504.22
2022-11-28T09:06:24.157Z,101505.88
2022-11-28T09:08:51.908Z,101505.50
2022-11-28T09:11:20.364Z,101500.19
2022-11-28T09:13:47.441Z,101509.06
2022-11-28T09:16:15.275Z,101504.72
2022-11-28T09:18:42.093Z,101505.00
2022-11-28T09:21:10.828Z,101502.72
2022-11-28T09:23:38.572Z,101505.50
2022-11-28T09:26:26.015Z,101500.44
2022-11-28T09:28:53.697Z,101501.84
2022-11-28T09:31:21.121Z,101500.91
2022-11-28T09:33:49.467Z,101512.19
2022-11-28T09:36:19.040Z,101508.03
2022-11-28T09:38:46.627Z,101511.59
2022-11-28T09:41:31.660Z,101510.56
2022-11-28T09:44:04.304Z,101511.81
2022-11-28T09:46:34.483Z,101511.47
2022-11-28T09:49:11.119Z,101509.06
2022-11-28T09:51:52.956Z,101510.56
2022-11-28T09:55:15.484Z,101506.03
2022-11-28T09:57:47.131Z,101513.59
2022-11-28T10:00:46.273Z,101510.06
2022-11-28T10:03:39.226Z,101505.25
2022-11-28T10:06:28.818Z,101504.63
2022-11-28T10:09:16.454Z,101513.75
2022-11-28T10:12:21.920Z,101510.84
2022-11-28T10:14:48.644Z,101500.19
2022-11-28T10:17:56.931Z,101504.50
2022-11-28T10:20:31.181Z,101507.66
2022-11-28T10:23:01.324Z,101495.25
2022-11-28T10:25:38.963Z,101505.38
2022-11-28T10:28:10.108Z,101503.22
2022-11-28T10:30:42.939Z,101500.91
2022-11-28T10:33:29.070Z,101502.81
2022-11-28T10:36:00.777Z,101498.91
2022-11-28T10:38:31.551Z,101496.75
2022-11-28T10:41:14.482Z,101491.31
2022-11-28T10:44:14.762Z,101500.69
2022-11-28T10:47:04.319Z,101500.44
2022-11-28T10:49:48.284Z,101499.44
2022-11-28T10:52:34.094Z,101500.97
2022-11-28T10:55:25.329Z,101503.84
2022-11-28T10:58:16.822Z,101500.06
2022-11-28T11:00:45.539Z,101501.97
2022-11-28T11:03:15.482Z,101499.81
2022-11-28T11:05:42.532Z,101504.00
2022-11-28T11:08:23.031Z,101509.94
2022-11-28T11:10:53.057Z,101503.13
2022-11-28T11:13:23.570Z,101508.31
2022-11-28T11:16:16.716Z,101508.03
2022-11-28T11:18:43.528Z,101515.41
2022-11-28T11:21:15.107Z,101510.34
2022-11-28T11:23:42.247Z,101510.34
2022-11-28T11:26:27.720Z,101512.97
2022-11-28T11:28:56.377Z,101507.78
2022-11-28T11:31:30.388Z,101514.00
2022-11-28T11:34:06.067Z,101514.63
2022-11-28T11:36:35.999Z,101505.50
2022-11-28T11:39:12.456Z,101511.84
2022-11-28T11:41:45.067Z,101511.97
2022-11-28T11:44:14.846Z,101519.69
2022-11-28T11:47:01.806Z,101522.75
2022-11-28T11:49:39.287Z,101528.28
2022-11-28T11:52:12.889Z,101529.31
2022-11-28T11:54:56.379Z,101532.88
2022-11-28T11:57:34.113Z,101535.13
2022-11-28T12:00:11.020Z,101534.38
2022-11-28T12:02:45.547Z,101545.13
2022-11-28T12:05:12.473Z,101544.00
2022-11-28T12:07:52.524Z,101539.28
2022-11-28T12:10:23.892Z,101544.00
2022-11-28T12:12:50.787Z,101538.66
2022-11-28T12:15:44.710Z,101536.88
2022-11-28T12:18:45.013Z,101536.63
2022-11-28T12:21:25.567Z,101530.41
2022-11-28T12:24:13.347Z,101528.34
2022-11-28T12:26:48.391Z,101526.97
2022-11-28T12:32:13.679Z,101538.84
2022-11-28T12:34:43.192Z,101542.63
2022-11-28T12:37:18.844Z,101546.06
2022-11-28T12:40:00.723Z,101552.28
2022-11-28T12:42:27.460Z,101547.31
2022-11-28T12:45:29.630Z,101551.13
2022-11-28T12:48:17.471Z,101557.06
2022-11-28T12:50:49.936Z,101558.22
2022-11-28T12:53:34.724Z,101560.91
2022-11-28T12:56:04.515Z,101565.56
2022-11-28T12:58:41.467Z,101570.47
2022-11-28T13:01:35.660Z,101573.28
2022-11-28T13:04:20.483Z,101569.22
2022-11-28T13:07:06.348Z,101564.44
2022-11-28T13:09:37.558Z,101569.22
2022-11-28T13:12:14.533Z,101571.63
2022-11-28T13:14:47.226Z,101566.94
2022-11-28T13:17:45.836Z,101560.56
2022-11-28T13:20:42.051Z,101569.41
2022-11-28T13:23:11.519Z,101566.13
2022-11-28T13:26:06.676Z,101570.22
2022-11-28T13:28:48.817Z,101571.03
2022-11-28T13:31:32.649Z,101564.16
2022-11-28T13:34:00.186Z,101560.34
2022-11-28T13:39:45.336Z,101568.22
2022-11-28T13:43:04.363Z,101570.47
2022-11-28T13:45:52.880Z,101575.75
2022-11-28T13:49:13.180Z,101575.75
2022-11-28T13:51:31.623Z,101573.88
2022-11-28T13:54:17.833Z,101582.19
2022-11-28T13:57:19.033Z,101586.13
2022-11-28T14:00:22.796Z,101582.56
2022-11-28T14:02:55.564Z,101584.81
2022-11-28T14:05:31.867Z,101584.69
2022-11-28T14:07:59.294Z,101593.41
2022-11-28T14:10:29.060Z,101596.41
2022-11-28T14:13:36.960Z,101602.97
2022-11-28T14:16:10.328Z,101601.13
2022-11-28T14:18:56.352Z,101601.34
2022-11-28T14:21:36.063Z,101599.09
2022-11-28T14:24:30.763Z,101601.56
2022-11-28T14:27:00.948Z,101608.38
2022-11-28T14:29:50.327Z,101602.81
2022-11-28T14:32:37.002Z,101601.22
2022-11-28T14:35:07.494Z,101606.00
2022-11-28T14:37:36.857Z,101608.66
2022-11-28T14:40:41.721Z,101605.28
2022-11-28T14:43:23.708Z,101603.78
2022-11-28T14:46:11.156Z,101607.06
2022-11-28T14:48:42.170Z,101606.72
2022-11-28T14:51:09.648Z,101598.09
2022-11-28T14:53:45.245Z,101605.06
2022-11-28T14:56:14.858Z,101602.41
2022-11-28T14:58:49.749Z,101589.75
2022-11-28T15:01:33.935Z,101595.72
2022-11-28T15:04:17.424Z,101599.34
2022-11-28T15:06:44.790Z,101597.66
2022-11-28T15:09:27.942Z,101597.66
2022-11-28T15:12:23.294Z,101593.19
2022-11-28T15:14:55.302Z,101594.56
2022-11-28T15:17:28.501Z,101584.44
2022-11-28T15:19:57.994Z,101593.56
2022-11-28T15:22:41.122Z,101587.13
2022-11-28T15:25:24.264Z,101591.16
2022-11-28T15:27:51.691Z,101593.91
2022-11-28T15:30:23.648Z,101593.28
2022-11-28T15:32:58.381Z,101591.53
2022-11-28T15:35:26.024Z,101601.22
2022-11-28T15:37:58.113Z,101602.22
2022-11-28T15:40:32.696Z,101614.25
2022-11-28T15:43:01.294Z,101618.72
2022-11-28T15:45:31.146Z,101616.41
2022-11-28T15:47:58.923Z,101617.56
2022-11-28T15:50:31.237Z,101616.38
2022-11-28T15:53:01.144Z,101623.50
2022-11-28T15:55:33.499Z,101608.31
2022-11-28T15:58:29.699Z,101614.38
2022-11-28T16:01:06.045Z,101612.13
2022-11-28T16:03:38.308Z,101600.84
2022-11-28T16:06:06.181Z,101604.19
2022-11-28T16:08:40.547Z,101612.84
2022-11-28T16:11:10.256Z,101607.50
2022-11-28T16:13:40.284Z,101602.72
2022-11-28T16:16:15.319Z,101609.53
2022-11-28T16:18:52.057Z,101603.75
2022-11-28T16:21:19.059Z,101611.78
2022-11-28T16:23:45.799Z,101613.84
2022-11-28T16:26:32.969Z,101608.66
2022-11-28T16:29:05.692Z,101610.81
2022-11-28T16:31:33.042Z,101602.22
2022-11-28T16:34:00.977Z,101606.38
2022-11-28T16:36:36.279Z,101611.41
2022-11-28T16:39:14.813Z,101602.22
2022-11-28T16:42:06.320Z,101609.69
2022-11-28T16:44:33.628Z,101610.69
2022-11-28T16:47:01.203Z,101604.84
2022-11-28T16:49:36.756Z,101606.91
2022-11-28T16:52:21.847Z,101611.25
2022-11-28T16:54:49.988Z,101612.78
2022-11-28T16:57:17.509Z,101620.66
2022-11-28T16:59:45.545Z,101618.72
2022-11-28T17:02:15.645Z,101613.72
2022-11-28T17:04:42.544Z,101612.66
2022-11-28T17:07:13.811Z,101621.31
2022-11-28T17:09:46.641Z,101612.66
2022-11-28T17:12:46.697Z,101618.28
2022-11-28T17:15:19.040Z,101607.00
2022-11-28T17:17:46.189Z,101612.72
2022-11-28T17:20:13.812Z,101617.91
2022-11-28T17:22:44.069Z,101610.78
2022-11-28T17:25:29.350Z,101617.00
2022-11-28T17:27:57.437Z,101629.97
2022-11-28T17:30:24.330Z,101617.63
2022-11-28T17:32:52.164Z,101620.53
2022-11-28T17:35:23.736Z,101621.09
2022-11-28T17:37:50.916Z,101623.78
2022-11-28T17:40:33.076Z,101630.88
2022-11-28T17:43:01.163Z,101630.59
2022-11-28T17:45:30.318Z,101628.53
2022-11-28T17:47:57.131Z,101635.66
2022-11-28T17:50:23.864Z,101642.50
2022-11-28T17:52:50.778Z,101638.03
2022-11-28T17:55:18.383Z,101641.88
2022-11-28T17:57:45.126Z,101642.44
2022-11-28T18:00:14.788Z,101635.50
2022-11-28T18:02:42.212Z,101633.97
2022-11-28T18:08:10.521Z,101637.00
2022-11-28T18:10:37.335Z,101635.22
2022-11-28T18:13:05.954Z,101643.72
2022-11-28T18:15:35.644Z,101636.72
2022-11-28T18:18:04.343Z,101635.28
2022-11-28T18:20:33.380Z,101635.84
2022-11-28T18:23:04.073Z,101642.16
2022-11-28T18:25:33.735Z,101630.31
2022-11-28T18:28:00.498Z,101637.00
2022-11-28T18:30:27.444Z,101631.06
2022-11-28T18:32:54.458Z,101634.47
2022-11-28T18:35:21.498Z,101635.41
2022-11-28T18:37:48.376Z,101628.78
2022-11-28T18:40:15.692Z,101632.91
2022-11-28T18:42:42.934Z,101636.56
2022-11-28T18:45:11.436Z,101639.69
2022-11-28T18:47:38.910Z,101638.03
2022-11-28T18:50:06.678Z,101637.94
2022-11-28T18:52:33.840Z,101632.44
2022-11-28T18:55:00.945Z,101642.44
2022-11-28T18:57:31.453Z,101645.44
2022-11-28T18:59:59.926Z,101647.41
2022-11-28T19:02:28.326Z,101643.25
2022-11-28T19:04:55.596Z,101649.50
2022-11-28T19:07:24.160Z,101652.06
2022-11-28T19:09:51.752Z,101652.06
2022-11-28T19:12:19.800Z,101656.09
2022-11-28T19:14:46.782Z,101647.00
2022-11-28T19:17:13.788Z,101645.53
2022-11-28T19:19:41.392Z,101646.69
2022-11-28T19:22:08.511Z,101645.78
2022-11-28T19:24:35.430Z,101644.25
2022-11-28T19:27:02.325Z,101643.72
2022-11-28T19:29:29.157Z,101644.97
2022-11-28T19:31:56.172Z,101647.69
2022-11-28T19:34:23.247Z,101646.38
2022-11-28T19:36:51.290Z,101648.38
2022-11-28T19:39:20.680Z,101648.78
2022-11-28T19:41:48.028Z,101648.66
2022-11-28T19:44:15.347Z,101652.69
2022-11-28T19:46:42.992Z,101648.09
2022-11-28T19:49:17.421Z,101651.19
2022-11-28T19:51:44.275Z,101651.94
2022-11-28T19:54:11.312Z,101650.91
2022-11-28T19:56:38.339Z,101657.47
2022-11-28T19:59:05.392Z,101664.78
2022-11-28T20:01:32.542Z,101666.56
2022-11-28T20:03:59.798Z,101663.97
2022-11-28T20:06:29.945Z,101665.25
2022-11-28T20:09:00.042Z,101670.19
2022-11-28T20:11:30.796Z,101669.16
2022-11-28T20:14:02.609Z,101668.91
2022-11-28T20:16:30.421Z,101675.25
2022-11-28T20:18:57.520Z,101677.53
2022-11-28T20:21:24.377Z,101672.72
2022-11-28T20:23:53.737Z,101670.59
2022-11-28T20:26:23.745Z,101677.56
2022-11-28T20:28:50.760Z,101675.03
2022-11-28T20:31:33.898Z,101675.81
2022-11-28T20:34:01.408Z,101676.00
2022-11-28T20:36:30.215Z,101683.41
2022-11-28T20:38:57.884Z,101681.59
2022-11-28T20:41:26.421Z,101684.13
2022-11-28T20:43:58.546Z,101687.22
2022-11-28T20:46:28.357Z,101686.47
2022-11-28T20:48:58.013Z,101694.53
2022-11-28T20:51:26.316Z,101692.06
2022-11-28T20:53:55.003Z,101696.09
2022-11-28T20:56:24.144Z,101695.63
2022-11-28T20:58:51.919Z,101690.41
2022-11-28T21:01:24.541Z,101696.97
2022-11-28T21:03:52.001Z,101691.09
2022-11-28T21:06:19.309Z,101700.19
2022-11-28T21:08:46.327Z,101695.41
2022-11-28T21:11:25.590Z,101700.88
2022-11-28T21:14:02.521Z,101705.50
2022-11-28T21:16:31.356Z,101699.19
2022-11-28T21:19:04.274Z,101707.19
2022-11-28T21:21:33.624Z,101702.13
2022-11-28T21:24:03.123Z,101704.19
2022-11-28T21:26:36.213Z,101714.72
2022-11-28T21:29:07.275Z,101712.47
2022-11-28T21:31:37.597Z,101703.97
2022-11-28T21:34:13.959Z,101708.63
2022-11-28T21:36:45.823Z,101704.19
2022-11-28T21:39:23.083Z,101709.25
2022-11-28T21:41:55.229Z,101703.28
2022-11-28T21:44:22.248Z,101708.88
2022-11-28T21:46:51.692Z,101704.41
2022-11-28T21:49:21.226Z,101706.16
2022-11-28T21:51:50.453Z,101703.75
2022-11-28T21:54:20.616Z,101703.50
2022-11-28T21:56:47.500Z,101706.78
2022-11-28T21:59:14.276Z,101702.34
2022-11-28T22:01:41.394Z,101703.97
2022-11-28T22:04:09.987Z,101705.00
2022-11-28T22:06:36.868Z,101704.41
2022-11-28T22:09:08.976Z,101701.66
2022-11-28T22:11:36.949Z,101701.53
2022-11-28T22:14:03.745Z,101704.06
2022-11-28T22:16:30.596Z,101702.28
2022-11-28T22:19:00.315Z,101695.72
2022-11-28T22:24:14.204Z,101709.13
2022-11-28T22:26:41.035Z,101706.16
2022-11-28T22:29:07.968Z,101707.06
2022-11-28T22:31:34.840Z,101696.94
2022-11-28T22:34:01.625Z,101702.88
2022-11-28T22:36:28.352Z,101704.69
2022-11-28T22:38:57.435Z,101697.81
2022-11-28T22:41:28.751Z,101698.47
2022-11-28T22:43:57.752Z,101705.28
2022-11-28T22:46:24.595Z,101699.06
2022-11-28T22:48:52.058Z,101706.50
2022-11-28T22:51:21.926Z,101701.72
2022-11-28T22:53:53.722Z,101701.44
2022-11-28T22:56:20.456Z,101705.91
2022-11-28T22:58:47.603Z,101704.53
2022-11-28T23:01:17.679Z,101707.53
2022-11-28T23:03:45.577Z,101715.59
2022-11-28T23:06:20.269Z,101708.91
2022-11-28T23:08:47.749Z,101705.00
2022-11-28T23:11:17.227Z,101705.28
2022-11-28T23:13:45.181Z,101706.31
2022-11-28T23:16:27.496Z,101711.03
2022-11-28T23:18:57.278Z,101706.56
2022-11-28T23:21:25.496Z,101714.03
2022-11-28T23:23:52.543Z,101712.25
2022-11-28T23:26:22.112Z,101722.38
2022-11-28T23:28:49.703Z,101716.78
2022-11-28T23:31:19.385Z,101709.91
2022-11-28T23:33:46.957Z,101709.03
2022-11-28T23:36:41.508Z,101705.69
2022-11-28T23:39:22.901Z,101707.94
2022-11-28T23:41:50.369Z,101708.75
2022-11-28T23:44:19.113Z,101709.38
2022-11-28T23:46:46.768Z,101710.75
2022-11-28T23:49:13.743Z,101709.09
2022-11-28T23:51:43.527Z,101707.59
2022-11-28T23:54:11.205Z,101712.03
2022-11-28T23:56:39.867Z,101705.94
2022-11-28T23:59:09.066Z,101707.59
